Urb the Estates, Puerto Rico
Current Conditions -  °F | °C
As of 10:56 PM on Sunday 21 Dec 2014 (Local Time) from TJSJ Reporting Station
Scattered Clouds Scattered Clouds  
Wind Chill: 77°   Ceiling: Unl
Heat Index: 79°   Visibility: 10mi
Dew Point: 68°   Wind: 0mph
Humidity: 74%   Direction: NA
Pressure: 30.08"   Gusts: NA
Location:  18.4598°N, 66.2592°W
Report Text: TJSJ 220256Z 00000KT 10SM SCT040 25/20 A3008 RMK AO2 SLP186 T02500200 50008
Loading
Personal Weather Stations






























Interactive Weather Map New forecast layout! Learn more

10-Day Weather Forecast

Advertisements
Track Severe Weather on mobile